sensor_id;sensor_type;location;lat;lon;timestamp;pressure;altitude;pressure_sealevel;temperature;humidity
32251;BME280;41295;48.518;9.206;2023-07-31T00:00:46;97304.81;;;17.54;60.11
32251;BME280;41295;48.518;9.206;2023-07-31T00:02:51;97310.84;;;17.56;60.13
32251;BME280;41295;48.518;9.206;2023-07-31T00:04:57;97307.56;;;17.52;59.97
32251;BME280;41295;48.518;9.206;2023-07-31T00:06:59;97304.47;;;17.46;60.00
32251;BME280;41295;48.518;9.206;2023-07-31T00:09:02;97304.03;;;17.39;60.57
32251;BME280;41295;48.518;9.206;2023-07-31T00:11:05;97305.19;;;17.35;60.61
32251;BME280;41295;48.518;9.206;2023-07-31T00:13:07;97298.72;;;17.26;61.15
32251;BME280;41295;48.518;9.206;2023-07-31T00:15:11;97293.94;;;17.18;61.27
32251;BME280;41295;48.518;9.206;2023-07-31T00:17:14;97303.81;;;17.14;61.68
32251;BME280;41295;48.518;9.206;2023-07-31T00:19:18;97299.41;;;17.00;62.26
32251;BME280;41295;48.518;9.206;2023-07-31T00:21:20;97301.84;;;17.03;61.98
32251;BME280;41295;48.518;9.206;2023-07-31T00:23:23;97299.97;;;17.05;61.99
32251;BME280;41295;48.518;9.206;2023-07-31T00:25:26;97298.47;;;17.01;62.10
32251;BME280;41295;48.518;9.206;2023-07-31T00:27:28;97305.06;;;16.94;62.17
32251;BME280;41295;48.518;9.206;2023-07-31T00:29:30;97307.25;;;16.87;62.58
32251;BME280;41295;48.518;9.206;2023-07-31T00:31:33;97308.19;;;16.86;62.95
32251;BME280;41295;48.518;9.206;2023-07-31T00:33:36;97313.91;;;16.93;62.45
32251;BME280;41295;48.518;9.206;2023-07-31T00:35:40;97305.25;;;16.91;62.34
32251;BME280;41295;48.518;9.206;2023-07-31T00:37:42;97311.38;;;16.91;62.11
32251;BME280;41295;48.518;9.206;2023-07-31T00:39:44;97314.22;;;16.88;62.20
32251;BME280;41295;48.518;9.206;2023-07-31T00:41:46;97310.72;;;16.88;62.38
32251;BME280;41295;48.518;9.206;2023-07-31T00:43:49;97314.69;;;16.80;62.54
32251;BME280;41295;48.518;9.206;2023-07-31T00:45:52;97316.75;;;16.75;62.44
32251;BME280;41295;48.518;9.206;2023-07-31T00:47:55;97313.56;;;16.70;63.17
32251;BME280;41295;48.518;9.206;2023-07-31T00:49:58;97314.44;;;16.70;63.03
32251;BME280;41295;48.518;9.206;2023-07-31T00:52:03;97309.16;;;16.70;62.92
32251;BME280;41295;48.518;9.206;2023-07-31T00:54:05;97309.16;;;16.70;62.83
32251;BME280;41295;48.518;9.206;2023-07-31T00:56:08;97299.34;;;16.73;62.95
32251;BME280;41295;48.518;9.206;2023-07-31T00:58:11;97299.09;;;16.77;62.36
32251;BME280;41295;48.518;9.206;2023-07-31T01:00:14;97298.44;;;16.74;62.58
32251;BME280;41295;48.518;9.206;2023-07-31T01:02:15;97291.66;;;16.69;62.18
32251;BME280;41295;48.518;9.206;2023-07-31T01:04:18;97294.09;;;16.73;62.33
32251;BME280;41295;48.518;9.206;2023-07-31T01:06:33;97296.06;;;16.69;62.84
32251;BME280;41295;48.518;9.206;2023-07-31T01:08:44;97296.72;;;16.73;62.95
32251;BME280;41295;48.518;9.206;2023-07-31T01:10:53;97294.94;;;16.73;62.32
32251;BME280;41295;48.518;9.206;2023-07-31T01:12:58;97297.03;;;16.68;62.63
32251;BME280;41295;48.518;9.206;2023-07-31T01:15:04;97293.09;;;16.61;62.73
32251;BME280;41295;48.518;9.206;2023-07-31T01:17:07;97293.84;;;16.63;62.70
32251;BME280;41295;48.518;9.206;2023-07-31T01:19:11;97293.53;;;16.67;62.72
32251;BME280;41295;48.518;9.206;2023-07-31T01:21:23;97288.16;;;16.69;62.63
32251;BME280;41295;48.518;9.206;2023-07-31T01:23:47;97287.25;;;16.70;62.84
32251;BME280;41295;48.518;9.206;2023-07-31T01:26:03;97281.78;;;16.73;62.84
32251;BME280;41295;48.518;9.206;2023-07-31T01:28:09;97282.56;;;16.61;62.69
32251;BME280;41295;48.518;9.206;2023-07-31T01:30:16;97279.16;;;16.58;63.46
32251;BME280;41295;48.518;9.206;2023-07-31T01:32:19;97276.44;;;16.60;63.38
32251;BME280;41295;48.518;9.206;2023-07-31T01:34:22;97282.19;;;16.67;63.09
32251;BME280;41295;48.518;9.206;2023-07-31T01:36:25;97273.16;;;16.56;63.03
32251;BME280;41295;48.518;9.206;2023-07-31T01:38:28;97274.56;;;16.47;63.22
32251;BME280;41295;48.518;9.206;2023-07-31T01:40:31;97265.94;;;16.45;63.99
32251;BME280;41295;48.518;9.206;2023-07-31T01:42:34;97267.25;;;16.38;64.70
32251;BME280;41295;48.518;9.206;2023-07-31T01:44:37;97261.03;;;16.25;64.71
32251;BME280;41295;48.518;9.206;2023-07-31T01:46:39;97256.28;;;16.17;64.80
32251;BME280;41295;48.518;9.206;2023-07-31T01:48:43;97253.63;;;16.17;65.26
32251;BME280;41295;48.518;9.206;2023-07-31T01:50:45;97257.75;;;16.06;65.55
32251;BME280;41295;48.518;9.206;2023-07-31T01:52:48;97257.94;;;16.03;65.50
32251;BME280;41295;48.518;9.206;2023-07-31T01:54:51;97264.25;;;16.01;66.03
32251;BME280;41295;48.518;9.206;2023-07-31T01:56:54;97258.38;;;15.95;66.56
32251;BME280;41295;48.518;9.206;2023-07-31T01:58:58;97246.25;;;15.93;66.61
32251;BME280;41295;48.518;9.206;2023-07-31T02:01:01;97256.47;;;15.97;66.65
32251;BME280;41295;48.518;9.206;2023-07-31T02:03:03;97253.28;;;15.92;66.58
32251;BME280;41295;48.518;9.206;2023-07-31T02:05:06;97250.84;;;15.89;66.92
32251;BME280;41295;48.518;9.206;2023-07-31T02:07:09;97252.91;;;15.84;66.24
32251;BME280;41295;48.518;9.206;2023-07-31T02:09:12;97251.03;;;15.86;66.89
32251;BME280;41295;48.518;9.206;2023-07-31T02:11:14;97253.09;;;15.81;66.77
32251;BME280;41295;48.518;9.206;2023-07-31T02:13:17;97250.81;;;15.74;66.56
32251;BME280;41295;48.518;9.206;2023-07-31T02:15:22;97248.28;;;15.73;66.87
32251;BME280;41295;48.518;9.206;2023-07-31T02:17:24;97242.94;;;15.74;67.21
32251;BME280;41295;48.518;9.206;2023-07-31T02:19:27;97236.19;;;15.70;67.41
32251;BME280;41295;48.518;9.206;2023-07-31T02:21:30;97237.09;;;15.69;67.40
32251;BME280;41295;48.518;9.206;2023-07-31T02:23:33;97225.00;;;15.67;67.73
32251;BME280;41295;48.518;9.206;2023-07-31T02:25:35;97225.16;;;15.63;67.72
32251;BME280;41295;48.518;9.206;2023-07-31T02:27:38;97217.28;;;15.63;68.06
32251;BME280;41295;48.518;9.206;2023-07-31T02:29:40;97215.41;;;15.66;67.82
32251;BME280;41295;48.518;9.206;2023-07-31T02:31:44;97212.22;;;15.60;67.39
32251;BME280;41295;48.518;9.206;2023-07-31T02:33:46;97208.00;;;15.58;67.80
32251;BME280;41295;48.518;9.206;2023-07-31T02:35:49;97209.78;;;15.57;67.66
32251;BME280;41295;48.518;9.206;2023-07-31T02:37:51;97208.81;;;15.58;67.92
32251;BME280;41295;48.518;9.206;2023-07-31T02:39:54;97205.94;;;15.63;67.79
32251;BME280;41295;48.518;9.206;2023-07-31T02:41:57;97207.72;;;15.62;67.69
32251;BME280;41295;48.518;9.206;2023-07-31T02:43:59;97201.44;;;15.65;67.29
32251;BME280;41295;48.518;9.206;2023-07-31T02:46:02;97203.31;;;15.63;67.26
32251;BME280;41295;48.518;9.206;2023-07-31T02:48:06;97208.38;;;15.66;66.86
32251;BME280;41295;48.518;9.206;2023-07-31T02:50:09;97209.34;;;15.65;66.88
32251;BME280;41295;48.518;9.206;2023-07-31T02:52:12;97206.09;;;15.60;66.81
32251;BME280;41295;48.518;9.206;2023-07-31T02:54:15;97208.00;;;15.58;67.14
32251;BME280;41295;48.518;9.206;2023-07-31T02:56:17;97208.06;;;15.56;67.65
32251;BME280;41295;48.518;9.206;2023-07-31T02:58:20;97209.00;;;15.55;66.96
32251;BME280;41295;48.518;9.206;2023-07-31T03:00:22;97206.19;;;15.58;66.80
32251;BME280;41295;48.518;9.206;2023-07-31T03:02:24;97207.44;;;15.67;66.80
32251;BME280;41295;48.518;9.206;2023-07-31T03:04:28;97215.63;;;15.77;66.32
32251;BME280;41295;48.518;9.206;2023-07-31T03:06:31;97209.22;;;15.81;66.23
32251;BME280;41295;48.518;9.206;2023-07-31T03:08:32;97207.47;;;15.82;66.20
32251;BME280;41295;48.518;9.206;2023-07-31T03:10:35;97197.59;;;15.85;66.07
32251;BME280;41295;48.518;9.206;2023-07-31T03:12:38;97202.59;;;15.90;65.74
32251;BME280;41295;48.518;9.206;2023-07-31T03:14:40;97197.25;;;15.92;66.18
32251;BME280;41295;48.518;9.206;2023-07-31T03:16:43;97198.91;;;15.93;66.27
32251;BME280;41295;48.518;9.206;2023-07-31T03:18:46;97198.91;;;15.93;66.11
32251;BME280;41295;48.518;9.206;2023-07-31T03:20:50;97200.97;;;15.87;66.13
32251;BME280;41295;48.518;9.206;2023-07-31T03:22:52;97201.44;;;15.94;65.94
32251;BME280;41295;48.518;9.206;2023-07-31T03:24:55;97197.97;;;15.94;66.04
32251;BME280;41295;48.518;9.206;2023-07-31T03:26:58;97197.97;;;15.94;65.98
32251;BME280;41295;48.518;9.206;2023-07-31T03:29:00;97198.34;;;15.87;65.99
32251;BME280;41295;48.518;9.206;2023-07-31T03:31:03;97199.56;;;15.82;66.12
32251;BME280;41295;48.518;9.206;2023-07-31T03:33:05;97202.69;;;15.74;66.66
32251;BME280;41295;48.518;9.206;2023-07-31T03:35:08;97206.31;;;15.71;67.05
32251;BME280;41295;48.518;9.206;2023-07-31T03:37:11;97212.44;;;15.72;66.87
32251;BME280;41295;48.518;9.206;2023-07-31T03:39:13;97204.72;;;15.69;66.76
32251;BME280;41295;48.518;9.206;2023-07-31T03:41:16;97207.53;;;15.66;67.00
32251;BME280;41295;48.518;9.206;2023-07-31T03:43:18;97209.41;;;15.63;67.41
32251;BME280;41295;48.518;9.206;2023-07-31T03:45:21;97207.91;;;15.59;67.52
32251;BME280;41295;48.518;9.206;2023-07-31T03:47:24;97210.63;;;15.58;67.57
32251;BME280;41295;48.518;9.206;2023-07-31T03:49:27;97218.41;;;15.59;67.61
32251;BME280;41295;48.518;9.206;2023-07-31T03:51:29;97212.41;;;15.57;67.63
32251;BME280;41295;48.518;9.206;2023-07-31T03:53:33;97202.66;;;15.59;67.73
32251;BME280;41295;48.518;9.206;2023-07-31T03:55:36;97206.38;;;15.55;67.25
32251;BME280;41295;48.518;9.206;2023-07-31T03:57:37;97211.94;;;15.50;67.62
32251;BME280;41295;48.518;9.206;2023-07-31T03:59:40;97213.59;;;15.51;67.93
32251;BME280;41295;48.518;9.206;2023-07-31T04:01:43;97212.75;;;15.51;67.65
32251;BME280;41295;48.518;9.206;2023-07-31T04:03:45;97206.00;;;15.47;67.81
32251;BME280;41295;48.518;9.206;2023-07-31T04:05:48;97213.31;;;15.42;67.68
32251;BME280;41295;48.518;9.206;2023-07-31T04:07:50;97224.06;;;15.37;68.07
32251;BME280;41295;48.518;9.206;2023-07-31T04:09:55;97209.25;;;15.36;68.58
32251;BME280;41295;48.518;9.206;2023-07-31T04:11:58;97216.94;;;15.39;68.48
32251;BME280;41295;48.518;9.206;2023-07-31T04:14:00;97216.66;;;15.44;68.03
32251;BME280;41295;48.518;9.206;2023-07-31T04:16:03;97216.59;;;15.45;67.84
32251;BME280;41295;48.518;9.206;2023-07-31T04:18:06;97222.69;;;15.46;67.66
32251;BME280;41295;48.518;9.206;2023-07-31T04:20:09;97224.41;;;15.47;68.70
32251;BME280;41295;48.518;9.206;2023-07-31T04:22:12;97216.31;;;15.50;68.57
32251;BME280;41295;48.518;9.206;2023-07-31T04:24:15;97214.47;;;15.52;68.45
32251;BME280;41295;48.518;9.206;2023-07-31T04:26:24;97209.97;;;15.54;68.56
32251;BME280;41295;48.518;9.206;2023-07-31T04:28:27;97205.53;;;15.55;68.31
32251;BME280;41295;48.518;9.206;2023-07-31T04:30:33;97204.63;;;15.56;68.38
32251;BME280;41295;48.518;9.206;2023-07-31T04:32:35;97202.81;;;15.56;68.42
32251;BME280;41295;48.518;9.206;2023-07-31T04:34:38;97197.19;;;15.62;68.49
32251;BME280;41295;48.518;9.206;2023-07-31T04:36:41;97195.53;;;15.61;68.32
32251;BME280;41295;48.518;9.206;2023-07-31T04:38:43;97193.81;;;15.60;68.09
32251;BME280;41295;48.518;9.206;2023-07-31T04:40:46;97187.16;;;15.69;67.99
32251;BME280;41295;48.518;9.206;2023-07-31T04:42:49;97191.13;;;15.77;67.78
32251;BME280;41295;48.518;9.206;2023-07-31T04:44:52;97197.03;;;15.80;67.80
32251;BME280;41295;48.518;9.206;2023-07-31T04:46:55;97192.88;;;15.76;67.76
32251;BME280;41295;48.518;9.206;2023-07-31T04:48:58;97191.97;;;15.77;67.83
32251;BME280;41295;48.518;9.206;2023-07-31T04:51:00;97199.84;;;15.77;67.85
32251;BME280;41295;48.518;9.206;2023-07-31T04:53:03;97198.06;;;15.92;67.17
32251;BME280;41295;48.518;9.206;2023-07-31T04:55:06;97201.34;;;15.81;67.33
32251;BME280;41295;48.518;9.206;2023-07-31T04:57:09;97204.81;;;15.82;67.43
32251;BME280;41295;48.518;9.206;2023-07-31T04:59:13;97206.34;;;15.86;67.62
32251;BME280;41295;48.518;9.206;2023-07-31T05:01:15;97205.13;;;15.92;67.21
32251;BME280;41295;48.518;9.206;2023-07-31T05:03:18;97205.94;;;15.92;67.07
32251;BME280;41295;48.518;9.206;2023-07-31T05:05:21;97197.97;;;15.94;67.26
32251;BME280;41295;48.518;9.206;2023-07-31T05:07:24;97194.41;;;15.95;66.96
32251;BME280;41295;48.518;9.206;2023-07-31T05:09:26;97193.56;;;15.94;67.51
32251;BME280;41295;48.518;9.206;2023-07-31T05:11:29;97201.44;;;15.94;67.76
32251;BME280;41295;48.518;9.206;2023-07-31T05:13:32;97198.91;;;15.93;66.58
32251;BME280;41295;48.518;9.206;2023-07-31T05:15:36;97209.47;;;16.07;66.42
32251;BME280;41295;48.518;9.206;2023-07-31T05:17:38;97200.44;;;15.97;66.38
32251;BME280;41295;48.518;9.206;2023-07-31T05:19:41;97208.16;;;16.00;66.27
32251;BME280;41295;48.518;9.206;2023-07-31T05:21:44;97202.59;;;16.05;66.00
32251;BME280;41295;48.518;9.206;2023-07-31T05:23:46;97206.94;;;16.06;66.02
32251;BME280;41295;48.518;9.206;2023-07-31T05:25:49;97206.84;;;16.07;66.04
32251;BME280;41295;48.518;9.206;2023-07-31T05:27:52;97197.09;;;16.09;66.15
32251;BME280;41295;48.518;9.206;2023-07-31T05:29:54;97200.63;;;16.08;66.20
32251;BME280;41295;48.518;9.206;2023-07-31T05:31:59;97210.50;;;16.19;66.10
32251;BME280;41295;48.518;9.206;2023-07-31T05:34:02;97205.34;;;16.18;66.22
32251;BME280;41295;48.518;9.206;2023-07-31T05:36:04;97206.84;;;16.22;66.08
32251;BME280;41295;48.518;9.206;2023-07-31T05:38:07;97197.81;;;16.26;65.98
32251;BME280;41295;48.518;9.206;2023-07-31T05:40:10;97207.00;;;16.33;65.56
32251;BME280;41295;48.518;9.206;2023-07-31T05:42:13;97210.41;;;16.35;65.60
32251;BME280;41295;48.518;9.206;2023-07-31T05:44:16;97212.81;;;16.39;65.56
32251;BME280;41295;48.518;9.206;2023-07-31T05:46:18;97211.06;;;16.39;65.68
32251;BME280;41295;48.518;9.206;2023-07-31T05:48:23;97204.75;;;16.42;65.86
32251;BME280;41295;48.518;9.206;2023-07-31T05:50:25;97208.97;;;16.44;65.81
32251;BME280;41295;48.518;9.206;2023-07-31T05:52:28;97206.25;;;16.46;65.74
32251;BME280;41295;48.518;9.206;2023-07-31T05:54:31;97210.69;;;16.45;65.52
32251;BME280;41295;48.518;9.206;2023-07-31T05:56:34;97206.25;;;16.46;65.60
32251;BME280;41295;48.518;9.206;2023-07-31T05:58:37;97212.91;;;16.52;65.44
32251;BME280;41295;48.518;9.206;2023-07-31T06:00:39;97216.41;;;16.52;66.10
32251;BME280;41295;48.518;9.206;2023-07-31T06:02:43;97205.66;;;16.55;65.92
32251;BME280;41295;48.518;9.206;2023-07-31T06:04:47;97206.31;;;16.59;65.86
32251;BME280;41295;48.518;9.206;2023-07-31T06:06:50;97213.47;;;16.57;66.20
32251;BME280;41295;48.518;9.206;2023-07-31T06:08:52;97202.06;;;16.71;65.37
32251;BME280;41295;48.518;9.206;2023-07-31T06:10:55;97198.59;;;16.70;65.70
32251;BME280;41295;48.518;9.206;2023-07-31T06:12:58;97195.09;;;16.70;65.83
32251;BME280;41295;48.518;9.206;2023-07-31T06:15:02;97191.94;;;16.65;66.08
32251;BME280;41295;48.518;9.206;2023-07-31T06:17:05;97195.31;;;16.67;66.34
32251;BME280;41295;48.518;9.206;2023-07-31T06:19:08;97192.69;;;16.67;66.40
32251;BME280;41295;48.518;9.206;2023-07-31T06:21:12;97197.84;;;16.68;66.26
32251;BME280;41295;48.518;9.206;2023-07-31T06:23:15;97198.19;;;16.77;66.02
32251;BME280;41295;48.518;9.206;2023-07-31T06:25:20;97202.59;;;16.76;66.42
32251;BME280;41295;48.518;9.206;2023-07-31T06:27:22;97197.97;;;16.80;67.03
32251;BME280;41295;48.518;9.206;2023-07-31T06:29:25;97194.13;;;16.86;67.67
32251;BME280;41295;48.518;9.206;2023-07-31T06:31:28;97187.72;;;16.90;67.74
32251;BME280;41295;48.518;9.206;2023-07-31T06:33:31;97193.16;;;16.87;67.88
32251;BME280;41295;48.518;9.206;2023-07-31T06:35:33;97190.34;;;16.90;68.39
32251;BME280;41295;48.518;9.206;2023-07-31T06:37:37;97180.47;;;16.93;68.83
32251;BME280;41295;48.518;9.206;2023-07-31T06:39:41;97193.09;;;17.01;68.88
32251;BME280;41295;48.518;9.206;2023-07-31T06:41:44;97196.09;;;17.10;68.21
32251;BME280;41295;48.518;9.206;2023-07-31T06:43:47;97189.31;;;17.20;68.12
32251;BME280;41295;48.518;9.206;2023-07-31T06:45:49;97191.41;;;17.28;67.63
32251;BME280;41295;48.518;9.206;2023-07-31T06:47:53;97192.91;;;17.32;67.37
32251;BME280;41295;48.518;9.206;2023-07-31T06:49:55;97186.06;;;17.42;67.38
32251;BME280;41295;48.518;9.206;2023-07-31T06:51:58;97183.47;;;17.55;66.78
32251;BME280;41295;48.518;9.206;2023-07-31T06:54:02;97184.50;;;17.66;66.96
32251;BME280;41295;48.518;9.206;2023-07-31T06:56:05;97181.47;;;17.72;66.25
32251;BME280;41295;48.518;9.206;2023-07-31T06:58:07;97182.41;;;17.84;64.49
32251;BME280;41295;48.518;9.206;2023-07-31T07:00:11;97179.16;;;17.94;63.81
32251;BME280;41295;48.518;9.206;2023-07-31T07:02:13;97185.75;;;17.99;62.95
32251;BME280;41295;48.518;9.206;2023-07-31T07:04:15;97185.25;;;18.07;62.24
32251;BME280;41295;48.518;9.206;2023-07-31T07:06:18;97183.47;;;18.08;62.76
32251;BME280;41295;48.518;9.206;2023-07-31T07:08:21;97185.88;;;18.11;62.96
32251;BME280;41295;48.518;9.206;2023-07-31T07:10:25;97202.44;;;18.13;62.62
32251;BME280;41295;48.518;9.206;2023-07-31T07:12:29;97196.00;;;18.17;62.47
32251;BME280;41295;48.518;9.206;2023-07-31T07:14:32;97197.38;;;18.23;62.50
32251;BME280;41295;48.518;9.206;2023-07-31T07:16:34;97189.34;;;18.24;62.95
32251;BME280;41295;48.518;9.206;2023-07-31T07:18:37;97193.25;;;18.32;62.74
32251;BME280;41295;48.518;9.206;2023-07-31T07:20:52;97190.94;;;18.40;62.71
32251;BME280;41295;48.518;9.206;2023-07-31T07:22:55;97194.06;;;18.45;62.05
32251;BME280;41295;48.518;9.206;2023-07-31T07:24:58;97191.94;;;18.50;61.75
32251;BME280;41295;48.518;9.206;2023-07-31T07:27:00;97196.72;;;18.45;61.97
32251;BME280;41295;48.518;9.206;2023-07-31T07:29:03;97193.34;;;18.43;62.17
32251;BME280;41295;48.518;9.206;2023-07-31T07:31:08;97183.28;;;18.48;61.94
32251;BME280;41295;48.518;9.206;2023-07-31T07:33:11;97181.69;;;18.59;61.49
32251;BME280;41295;48.518;9.206;2023-07-31T07:35:14;97186.97;;;18.59;60.72
32251;BME280;41295;48.518;9.206;2023-07-31T07:37:16;97185.16;;;18.59;61.20
32251;BME280;41295;48.518;9.206;2023-07-31T07:39:19;97191.97;;;18.75;59.88
32251;BME280;41295;48.518;9.206;2023-07-31T07:41:22;97181.88;;;18.69;60.19
32251;BME280;41295;48.518;9.206;2023-07-31T07:43:26;97167.97;;;18.78;60.25
32251;BME280;41295;48.518;9.206;2023-07-31T07:45:29;97173.38;;;18.77;60.88
32251;BME280;41295;48.518;9.206;2023-07-31T07:47:31;97167.78;;;18.81;61.12
32251;BME280;41295;48.518;9.206;2023-07-31T07:49:35;97171.53;;;18.90;60.96
32251;BME280;41295;48.518;9.206;2023-07-31T07:51:38;97173.69;;;18.96;59.57
32251;BME280;41295;48.518;9.206;2023-07-31T07:53:41;97171.28;;;18.93;59.96
32251;BME280;41295;48.518;9.206;2023-07-31T07:55:44;97165.50;;;18.88;60.41
32251;BME280;41295;48.518;9.206;2023-07-31T07:57:46;97159.59;;;18.84;60.69
32251;BME280;41295;48.518;9.206;2023-07-31T07:59:52;97169.38;;;18.95;57.98
32251;BME280;41295;48.518;9.206;2023-07-31T08:01:55;97173.59;;;18.98;58.77
32251;BME280;41295;48.518;9.206;2023-07-31T08:03:59;97165.34;;;19.03;58.25
32251;BME280;41295;48.518;9.206;2023-07-31T08:06:02;97169.00;;;19.13;58.52
32251;BME280;41295;48.518;9.206;2023-07-31T08:08:05;97168.25;;;19.11;58.62
32251;BME280;41295;48.518;9.206;2023-07-31T08:10:07;97169.28;;;19.21;57.61
32251;BME280;41295;48.518;9.206;2023-07-31T08:12:10;97161.72;;;19.28;55.89
32251;BME280;41295;48.518;9.206;2023-07-31T08:14:13;97156.53;;;19.27;56.30
32251;BME280;41295;48.518;9.206;2023-07-31T08:16:17;97151.75;;;19.32;55.64
32251;BME280;41295;48.518;9.206;2023-07-31T08:18:20;97151.66;;;19.45;55.00
32251;BME280;41295;48.518;9.206;2023-07-31T08:20:23;97144.91;;;19.41;55.93
32251;BME280;41295;48.518;9.206;2023-07-31T08:22:25;97147.81;;;19.38;56.48
32251;BME280;41295;48.518;9.206;2023-07-31T08:24:28;97150.00;;;19.44;54.72
32251;BME280;41295;48.518;9.206;2023-07-31T08:26:30;97146.63;;;19.42;54.28
32251;BME280;41295;48.518;9.206;2023-07-31T08:28:33;97138.81;;;19.52;53.26
32251;BME280;41295;48.518;9.206;2023-07-31T08:30:38;97135.06;;;19.43;52.39
32251;BME280;41295;48.518;9.206;2023-07-31T08:32:42;97142.56;;;19.49;52.90
32251;BME280;41295;48.518;9.206;2023-07-31T08:34:45;97129.34;;;19.49;52.28
32251;BME280;41295;48.518;9.206;2023-07-31T08:36:47;97135.44;;;19.50;51.97
32251;BME280;41295;48.518;9.206;2023-07-31T08:38:50;97129.44;;;19.47;51.64
32251;BME280;41295;48.518;9.206;2023-07-31T08:40:53;97128.25;;;19.52;52.12
32251;BME280;41295;48.518;9.206;2023-07-31T08:42:56;97137.97;;;19.51;52.12
32251;BME280;41295;48.518;9.206;2023-07-31T08:45:03;97125.84;;;19.60;51.71
32251;BME280;41295;48.518;9.206;2023-07-31T08:47:07;97143.66;;;19.69;52.37
32251;BME280;41295;48.518;9.206;2023-07-31T08:49:12;97128.50;;;19.71;52.39
32251;BME280;41295;48.518;9.206;2023-07-31T08:51:14;97135.38;;;19.74;51.58
32251;BME280;41295;48.518;9.206;2023-07-31T08:53:17;97131.50;;;19.78;51.77
32251;BME280;41295;48.518;9.206;2023-07-31T08:55:20;97124.06;;;19.83;51.20
32251;BME280;41295;48.518;9.206;2023-07-31T08:57:25;97132.13;;;19.82;51.31
32251;BME280;41295;48.518;9.206;2023-07-31T08:59:31;97132.13;;;19.82;52.31
32251;BME280;41295;48.518;9.206;2023-07-31T09:01:36;97133.44;;;19.88;52.75
32251;BME280;41295;48.518;9.206;2023-07-31T09:03:43;97119.84;;;20.04;50.48
32251;BME280;41295;48.518;9.206;2023-07-31T09:05:48;97129.50;;;20.05;51.09
32251;BME280;41295;48.518;9.206;2023-07-31T09:07:51;97128.53;;;20.06;51.95
32251;BME280;41295;48.518;9.206;2023-07-31T09:09:53;97125.66;;;20.21;51.20
32251;BME280;41295;48.518;9.206;2023-07-31T09:11:57;97120.44;;;20.19;50.74
32251;BME280;41295;48.518;9.206;2023-07-31T09:14:00;97124.78;;;20.20;51.39
32251;BME280;41295;48.518;9.206;2023-07-31T09:16:09;97117.44;;;20.24;51.20
32251;BME280;41295;48.518;9.206;2023-07-31T09:18:12;97106.88;;;20.24;51.54
32251;BME280;41295;48.518;9.206;2023-07-31T09:20:20;97117.19;;;20.38;50.66
32251;BME280;41295;48.518;9.206;2023-07-31T09:22:35;97113.97;;;20.23;51.32
32251;BME280;41295;48.518;9.206;2023-07-31T09:24:38;97109.97;;;20.29;50.73
32251;BME280;41295;48.518;9.206;2023-07-31T09:26:40;97109.19;;;20.50;50.51
32251;BME280;41295;48.518;9.206;2023-07-31T09:28:43;97108.34;;;20.61;50.53
32251;BME280;41295;48.518;9.206;2023-07-31T09:30:48;97105.69;;;20.61;50.24
32251;BME280;41295;48.518;9.206;2023-07-31T09:32:52;97112.63;;;20.73;50.57
32251;BME280;41295;48.518;9.206;2023-07-31T09:35:13;97114.06;;;20.77;50.03
32251;BME280;41295;48.518;9.206;2023-07-31T09:37:16;97108.97;;;20.86;49.10
32251;BME280;41295;48.518;9.206;2023-07-31T09:39:20;97107.88;;;20.88;49.41
32251;BME280;41295;48.518;9.206;2023-07-31T09:41:22;97095.84;;;20.96;49.05
32251;BME280;41295;48.518;9.206;2023-07-31T09:43:25;97101.31;;;21.04;49.18
32251;BME280;41295;48.518;9.206;2023-07-31T09:45:29;97098.47;;;20.96;49.61
32251;BME280;41295;48.518;9.206;2023-07-31T09:47:46;97097.50;;;20.97;49.31
32251;BME280;41295;48.518;9.206;2023-07-31T09:49:49;97096.03;;;21.04;48.67
32251;BME280;41295;48.518;9.206;2023-07-31T09:51:52;97090.28;;;20.99;49.00
32251;BME280;41295;48.518;9.206;2023-07-31T09:53:55;97073.88;;;20.94;49.69
32251;BME280;41295;48.518;9.206;2023-07-31T09:55:59;97070.53;;;20.91;50.05
32251;BME280;41295;48.518;9.206;2023-07-31T09:58:05;97070.88;;;20.98;50.06
32251;BME280;41295;48.518;9.206;2023-07-31T10:00:09;97067.94;;;21.01;49.22
32251;BME280;41295;48.518;9.206;2023-07-31T10:02:15;97057.22;;;21.03;49.67
32251;BME280;41295;48.518;9.206;2023-07-31T10:04:26;97050.78;;;20.96;49.34
32251;BME280;41295;48.518;9.206;2023-07-31T10:06:29;97044.72;;;20.94;49.90
32251;BME280;41295;48.518;9.206;2023-07-31T10:08:34;97048.47;;;20.91;50.80
32251;BME280;41295;48.518;9.206;2023-07-31T10:10:41;97059.91;;;20.91;50.20
32251;BME280;41295;48.518;9.206;2023-07-31T10:12:45;97046.22;;;20.86;49.31
32251;BME280;41295;48.518;9.206;2023-07-31T10:14:48;97044.53;;;20.85;49.56
32251;BME280;41295;48.518;9.206;2023-07-31T10:16:51;97037.81;;;20.81;49.84
32251;BME280;41295;48.518;9.206;2023-07-31T10:18:55;97039.03;;;20.77;49.70
32251;BME280;41295;48.518;9.206;2023-07-31T10:20:58;97019.91;;;20.73;50.27
32251;BME280;41295;48.518;9.206;2023-07-31T10:23:01;97018.81;;;20.76;50.87
32251;BME280;41295;48.518;9.206;2023-07-31T10:25:07;97016.84;;;20.78;50.54
32251;BME280;41295;48.518;9.206;2023-07-31T10:27:10;97009.75;;;20.78;50.81
32251;BME280;41295;48.518;9.206;2023-07-31T10:29:15;97017.44;;;20.82;51.14
32251;BME280;41295;48.518;9.206;2023-07-31T10:31:19;97020.09;;;20.82;50.74
32251;BME280;41295;48.518;9.206;2023-07-31T10:33:23;97015.78;;;20.81;51.12
32251;BME280;41295;48.518;9.206;2023-07-31T10:35:27;97014.41;;;20.86;50.43
32251;BME280;41295;48.518;9.206;2023-07-31T10:37:36;97011.50;;;20.89;50.94
32251;BME280;41295;48.518;9.206;2023-07-31T10:39:39;97010.41;;;20.92;51.20
32251;BME280;41295;48.518;9.206;2023-07-31T10:41:41;96999.44;;;20.97;51.66
32251;BME280;41295;48.518;9.206;2023-07-31T10:43:45;97001.47;;;21.05;51.14
32251;BME280;41295;48.518;9.206;2023-07-31T10:45:49;97008.44;;;21.06;51.37
32251;BME280;41295;48.518;9.206;2023-07-31T10:47:58;96993.94;;;21.10;50.71
32251;BME280;41295;48.518;9.206;2023-07-31T10:50:22;96991.03;;;21.13;50.77
32251;BME280;41295;48.518;9.206;2023-07-31T10:52:25;96990.75;;;21.16;50.92
32251;BME280;41295;48.518;9.206;2023-07-31T10:54:29;96985.09;;;21.21;50.97